createdAt,value
2023-02-22T00:00:01.816Z,543.847
2023-02-22T00:05:01.776Z,159.229
2023-02-22T00:10:01.769Z,159.06300000000002
2023-02-22T00:15:01.788Z,161.674
2023-02-22T00:20:01.772Z,195.354
2023-02-22T00:25:01.809Z,159.23
2023-02-22T00:30:01.954Z,1411.4460000000001
2023-02-22T00:35:01.754Z,2018.4940000000001
2023-02-22T00:40:01.909Z,2321.171
2023-02-22T00:45:01.952Z,2301.748
2023-02-22T00:50:02.089Z,2227.324
2023-02-22T00:55:01.973Z,2241.989
2023-02-22T01:00:01.970Z,2259.213
2023-02-22T01:05:02.005Z,2271.813
2023-02-22T01:10:01.868Z,2263.135
2023-02-22T01:15:01.884Z,2272.661
2023-02-22T01:20:01.871Z,2599.7400000000002
2023-02-22T01:25:01.862Z,2132.661
2023-02-22T01:30:01.829Z,253.417
2023-02-22T01:35:01.845Z,156.976
2023-02-22T01:40:01.866Z,157.257
2023-02-22T01:45:01.845Z,162.21
2023-02-22T01:50:02.712Z,210.171
2023-02-22T01:55:01.860Z,1404.996
2023-02-22T02:00:01.856Z,1907.902
2023-02-22T02:05:02.010Z,2375.349
2023-02-22T02:10:01.872Z,2315.093
2023-02-22T02:15:01.905Z,2327.024
2023-02-22T02:20:01.897Z,2274.041
2023-02-22T02:25:01.951Z,2249.357
2023-02-22T02:30:01.929Z,2263.924
2023-02-22T02:35:01.954Z,2262.096
2023-02-22T02:40:01.910Z,2263.748
2023-02-22T02:45:01.902Z,2268.244
2023-02-22T02:50:01.942Z,800.203
2023-02-22T02:55:01.932Z,278.47
2023-02-22T03:00:01.907Z,270.479
2023-02-22T03:05:01.940Z,263.834
2023-02-22T03:10:01.932Z,159.088
2023-02-22T03:15:01.941Z,270.324
2023-02-22T03:20:01.990Z,1731.82
2023-02-22T03:25:01.876Z,2335.664
2023-02-22T03:30:01.961Z,2230.274
2023-02-22T03:35:02.000Z,2212.879
2023-02-22T03:40:01.942Z,2301.602
2023-02-22T03:45:01.924Z,2369.65
2023-02-22T03:50:02.006Z,2367.529
2023-02-22T03:55:02.008Z,2307.869
2023-02-22T04:00:02.026Z,2281.372
2023-02-22T04:05:02.118Z,2289.074
2023-02-22T04:10:01.990Z,2289.11
2023-02-22T04:15:01.947Z,1789.452
2023-02-22T04:20:01.963Z,2872.446
2023-02-22T04:25:01.953Z,1375.74
2023-02-22T04:30:02.114Z,312.055
2023-02-22T04:35:02.026Z,304.56
2023-02-22T04:40:01.999Z,1271.354
2023-02-22T04:45:02.033Z,2240.672
2023-02-22T04:50:02.222Z,2246.516
2023-02-22T04:55:02.027Z,2256.742
2023-02-22T05:00:02.167Z,2272.996
2023-02-22T05:05:02.227Z,2299.838
2023-02-22T05:10:02.164Z,249.04500000000002
2023-02-22T05:15:02.154Z,238.437
2023-02-22T05:20:02.232Z,312.023
2023-02-22T05:25:02.204Z,266.182
2023-02-22T05:30:02.137Z,186.684
2023-02-22T05:35:02.269Z,1978.9560000000001
2023-02-22T05:40:02.228Z,2175.642
2023-02-22T05:45:02.146Z,2183.697
2023-02-22T05:50:02.161Z,1777.6670000000001
2023-02-22T05:55:02.205Z,2329.94
2023-02-22T06:00:02.234Z,620.839
2023-02-22T06:05:02.208Z,2252.372
2023-02-22T06:10:02.152Z,2359.18
2023-02-22T06:15:02.178Z,2337.591
2023-02-22T06:20:02.190Z,2266.03
2023-02-22T06:25:02.265Z,2267.039
2023-02-22T06:30:02.135Z,2277.7200000000003
2023-02-22T06:35:02.096Z,2524.771
2023-02-22T06:40:05.405Z,1704.959
2023-02-22T06:45:02.129Z,158.845
2023-02-22T06:50:02.132Z,293.225
2023-02-22T06:55:02.127Z,272.237
2023-02-22T07:00:02.177Z,295.593
2023-02-22T07:05:02.245Z,1312.174
2023-02-22T07:10:02.187Z,2232.493
2023-02-22T07:15:02.149Z,1736.2350000000001
2023-02-22T07:20:02.175Z,2478.087
2023-02-22T07:25:02.154Z,2256.001
2023-02-22T07:30:02.102Z,2270.414
2023-02-22T07:35:02.162Z,2345.1620000000003
2023-02-22T07:40:02.102Z,1108.424
2023-02-22T07:45:02.125Z,270.865
2023-02-22T07:50:02.197Z,243.33700000000002
2023-02-22T07:55:02.148Z,158.818
2023-02-22T08:00:02.184Z,159.416
2023-02-22T08:05:02.342Z,160.012
2023-02-22T08:10:02.203Z,159.655
2023-02-22T08:15:02.212Z,160.535
2023-02-22T08:20:02.246Z,1304.372
2023-02-22T08:25:02.176Z,2309.377
2023-02-22T08:30:02.208Z,2326.772
2023-02-22T08:35:02.167Z,2355.8360000000002
2023-02-22T08:40:02.280Z,2417.8070000000002
2023-02-22T08:45:02.254Z,2692.792
2023-02-22T08:50:02.237Z,182.621
2023-02-22T08:55:02.230Z,169.013
2023-02-22T09:00:02.184Z,159.865
2023-02-22T09:05:02.381Z,160.734
2023-02-22T09:10:02.192Z,217.699
2023-02-22T09:15:02.239Z,277.139
2023-02-22T09:20:02.213Z,270.309
2023-02-22T09:25:07.899Z,210.907
2023-02-22T09:30:02.496Z,185.76
2023-02-22T09:35:02.423Z,196.417
2023-02-22T09:40:02.287Z,196.96800000000002
2023-02-22T09:45:02.314Z,1610.911
2023-02-22T09:50:02.296Z,2053.956
2023-02-22T09:55:02.419Z,2225.864
2023-02-22T10:00:02.397Z,2356.538
2023-02-22T10:05:02.619Z,2220.531
2023-02-22T10:10:02.497Z,274.482
2023-02-22T10:15:02.399Z,161.599
2023-02-22T10:20:02.466Z,161.187
2023-02-22T10:25:02.393Z,161.363
2023-02-22T10:30:05.547Z,161.02100000000002
2023-02-22T10:35:02.601Z,160.725
2023-02-22T10:40:02.394Z,160.463
2023-02-22T10:45:02.418Z,223.591
2023-02-22T10:50:02.428Z,278.797
2023-02-22T10:55:14.411Z,270.933
2023-02-22T11:00:02.310Z,232.501
2023-02-22T11:05:02.504Z,186.74
2023-02-22T11:10:02.376Z,219.504
2023-02-22T11:15:02.296Z,233.02700000000002
2023-02-22T11:20:02.301Z,224.124
2023-02-22T11:25:02.430Z,209.78900000000002
2023-02-22T11:30:04.454Z,211.924
2023-02-22T11:35:08.896Z,318.004
2023-02-22T11:40:02.338Z,325.22
2023-02-22T11:45:02.367Z,320.371
2023-02-22T11:50:02.368Z,221.53
2023-02-22T11:55:02.376Z,320.797
2023-02-22T12:00:02.415Z,2119.099
2023-02-22T12:05:02.618Z,2156.1620000000003
2023-02-22T12:10:02.332Z,2211.429
2023-02-22T12:15:02.387Z,2237.6620000000003
2023-02-22T12:20:02.418Z,2331.194
2023-02-22T12:25:09.326Z,2409.949
2023-02-22T12:30:02.405Z,2162.704
2023-02-22T12:35:02.528Z,2383.597
2023-02-22T12:40:02.417Z,2480.565
2023-02-22T12:45:02.847Z,2822.592
2023-02-22T12:50:02.425Z,326.426
2023-02-22T12:55:02.366Z,163.344
2023-02-22T13:00:02.465Z,164.026
2023-02-22T13:05:02.927Z,169.348
2023-02-22T13:45:35.318Z,188.14000000000001
2023-02-22T13:50:02.572Z,187.5
2023-02-22T13:55:02.639Z,237.44
2023-02-22T14:00:02.598Z,302.733
2023-02-22T14:05:02.626Z,279.532
2023-02-22T14:10:02.603Z,225.422
2023-02-22T14:15:29.916Z,161.591
2023-02-22T14:20:02.521Z,161.649
2023-02-22T14:25:02.634Z,162.223
2023-02-22T14:30:02.515Z,161.922
2023-02-22T14:35:02.507Z,161.018
2023-02-22T14:40:02.581Z,1538.537
2023-02-22T14:45:29.509Z,2254.515
2023-02-22T14:50:02.518Z,2277.87
2023-02-22T14:55:02.551Z,2293.356
2023-02-22T15:00:02.551Z,2250.185
2023-02-22T15:05:02.628Z,2768.914
2023-02-22T15:10:02.740Z,763.508
2023-02-22T15:15:34.936Z,185.48
2023-02-22T15:20:02.578Z,184.864
2023-02-22T15:25:02.513Z,174.58700000000002
2023-02-22T15:30:02.585Z,233.172
2023-02-22T15:35:02.555Z,277.947
2023-02-22T15:40:02.622Z,270.694
2023-02-22T15:45:29.134Z,198.719
2023-02-22T15:50:04.652Z,811.7710000000001
2023-02-22T15:55:02.601Z,2067.4790000000003
2023-02-22T16:00:02.622Z,2051.801
2023-02-22T16:05:02.616Z,2152.15
2023-02-22T16:10:02.638Z,2175.439
2023-02-22T16:15:33.877Z,2283.23
2023-02-22T16:20:02.687Z,2910.637
2023-02-22T16:25:02.754Z,776.3580000000001
2023-02-22T16:30:05.914Z,266.375
2023-02-22T16:35:02.840Z,181.08700000000002
2023-02-22T16:40:02.785Z,162.423
2023-02-22T16:45:32.684Z,157.367
2023-02-22T16:50:03.441Z,158.435
2023-02-22T16:55:02.787Z,156.126
2023-02-22T17:00:02.875Z,155.351
2023-02-22T17:05:02.746Z,956.312
2023-02-22T17:10:02.815Z,2253.263
2023-02-22T17:15:25.712Z,2277.937
2023-02-22T17:20:02.669Z,2211.296
2023-02-22T17:25:03.966Z,2217.445
2023-02-22T17:30:02.590Z,1739.195
2023-02-22T17:35:02.677Z,180.095
2023-02-22T17:40:02.864Z,180.201
2023-02-22T17:45:32.115Z,180.464
2023-02-22T17:50:02.634Z,208.126
2023-02-22T17:55:02.635Z,276.735
2023-02-22T18:00:02.765Z,268.365
2023-02-22T18:05:02.705Z,235.387
2023-02-22T18:10:02.697Z,894.445
2023-02-22T18:20:02.963Z,2139.805
2023-02-22T18:25:02.891Z,2160.678
2023-02-22T18:30:02.748Z,2186.203
2023-02-22T18:35:02.707Z,2207.047
2023-02-22T18:40:02.741Z,2390.596
2023-02-22T18:45:02.718Z,2889.686
2023-02-22T18:50:02.780Z,638.642
2023-02-22T18:55:02.744Z,197.637
2023-02-22T19:00:02.928Z,181.935
2023-02-22T19:05:06.518Z,170.308
2023-02-22T19:10:02.959Z,157.548
2023-02-22T19:15:02.929Z,157.51
2023-02-22T19:20:03.026Z,158.363
2023-02-22T19:25:03.068Z,245.853
2023-02-22T19:30:02.908Z,2272.063
2023-02-22T19:35:02.878Z,2263.262
2023-02-22T19:40:02.951Z,2223.099
2023-02-22T19:45:02.882Z,1864.031
2023-02-22T19:50:02.855Z,2203.605
2023-02-22T19:55:02.906Z,2041.16
2023-02-22T20:00:02.808Z,193.228
2023-02-22T20:05:02.846Z,195.419
2023-02-22T20:10:02.866Z,192.175
2023-02-22T20:15:02.813Z,312.226
2023-02-22T20:20:02.875Z,300.39300000000003
2023-02-22T20:25:02.932Z,284.572
2023-02-22T20:30:02.874Z,1061.337
2023-02-22T20:35:02.839Z,2198.733
2023-02-22T20:40:04.208Z,2183.398
2023-02-22T20:45:02.824Z,2209.456
2023-02-22T20:50:02.921Z,2230.166
2023-02-22T20:55:02.840Z,2618.85
2023-02-22T21:00:02.840Z,1509.0330000000001
2023-02-22T21:05:02.854Z,276.427
2023-02-22T21:10:02.947Z,270.249
2023-02-22T21:15:02.887Z,197.609
2023-02-22T21:20:02.920Z,158.622
2023-02-22T21:25:02.981Z,161.898
2023-02-22T21:30:02.911Z,183.083
2023-02-22T21:35:02.908Z,182.66400000000002
2023-02-22T21:40:02.940Z,1515.0720000000001
2023-02-22T21:45:02.957Z,2219.707
2023-02-22T21:50:02.920Z,2101.325
2023-02-22T21:55:02.888Z,2130.14
2023-02-22T22:00:02.937Z,2304.541
2023-02-22T22:05:02.977Z,2228.583
2023-02-22T22:10:02.981Z,691.7620000000001
2023-02-22T22:15:03.079Z,158.13
2023-02-22T22:20:02.966Z,158.066
2023-02-22T22:25:02.927Z,157.983
2023-02-22T22:30:02.928Z,158.269
2023-02-22T22:35:02.932Z,248.256
2023-02-22T22:40:02.947Z,306.726
2023-02-22T22:45:02.938Z,304.303
2023-02-22T22:50:03.024Z,1597.3790000000001
2023-02-22T22:55:03.023Z,2199.597
2023-02-22T23:00:02.931Z,2208.655
2023-02-22T23:05:02.964Z,2235.155
2023-02-22T23:10:02.981Z,2375.319
2023-02-22T23:15:02.945Z,2801.044
2023-02-22T23:20:03.130Z,273.206
2023-02-22T23:25:02.992Z,279.573
2023-02-22T23:30:02.985Z,271.458
2023-02-22T23:35:03.011Z,246.481
2023-02-22T23:40:02.988Z,158.639
2023-02-22T23:45:03.169Z,158.494
2023-02-22T23:50:03.078Z,158.58100000000002
2023-02-22T23:55:03.164Z,156.895
